Time;durP1;ratioP1;P1;durP2;ratioP2;P2;SDS_P1;SDS_P2;PMS_P1;PMS_P2;Temp;Humidity;BMP_temperature;BMP_pressure;BME280_temperature;BME280_humidity;BME280_pressure;Samples;Min_cycle;Max_cycle;Signal;HPM_P1;HPM_P2
2021/01/23 00:00:16;;;;;;;1.60;1.50;;;;;;;1.83;100.00;96695.31;4928022;28;103196;-70
2021/01/23 00:02:43;;;;;;;2.07;1.63;;;;;;;1.66;100.00;96689.50;4938828;28;104205;-69
2021/01/23 00:05:11;;;;;;;2.10;1.90;;;;;;;1.72;100.00;96691.69;4920883;28;103762;-69
2021/01/23 00:07:38;;;;;;;1.57;1.47;;;;;;;1.70;100.00;96701.38;4919971;28;103127;-69
2021/01/23 00:10:07;;;;;;;1.80;1.70;;;;;;;1.87;100.00;96696.78;4927891;28;103491;-69
2021/01/23 00:12:35;;;;;;;1.70;1.60;;;;;;;1.67;100.00;96695.53;4934357;28;104693;-70
2021/01/23 00:15:04;;;;;;;2.10;2.00;;;;;;;1.69;100.00;96710.13;4939610;28;103719;-70
2021/01/23 00:17:31;;;;;;;1.87;1.77;;;;;;;1.89;100.00;96713.13;4939831;28;102680;-70
2021/01/23 00:19:58;;;;;;;2.13;1.93;;;;;;;1.85;100.00;96714.28;4928201;28;103117;-71
2021/01/23 00:22:25;;;;;;;2.40;2.20;;;;;;;1.73;100.00;96715.94;4921882;28;104572;-69
2021/01/23 00:24:52;;;;;;;2.17;2.00;;;;;;;1.79;100.00;96722.50;4930179;28;104122;-69
2021/01/23 00:27:20;;;;;;;2.70;2.50;;;;;;;1.74;100.00;96734.06;4924000;28;103068;-70
2021/01/23 00:29:47;;;;;;;2.80;2.60;;;;;;;1.54;100.00;96736.34;4924913;28;103588;-69
2021/01/23 00:32:14;;;;;;;3.07;2.87;;;;;;;1.62;100.00;96741.88;4932509;28;110262;-69
2021/01/23 00:34:41;;;;;;;2.90;2.67;;;;;;;1.72;100.00;96750.72;4940718;28;109192;-69
2021/01/23 00:37:08;;;;;;;3.17;2.87;;;;;;;1.67;100.00;96750.19;4939841;28;104234;-69
2021/01/23 00:39:35;;;;;;;3.70;3.30;;;;;;;1.69;100.00;96762.19;4924980;28;103221;-70
2021/01/23 00:42:02;;;;;;;3.70;3.40;;;;;;;1.64;100.00;96755.63;4921685;28;105427;-70
2021/01/23 00:44:30;;;;;;;3.77;3.37;;;;;;;1.75;100.00;96751.34;4931762;28;105262;-70
2021/01/23 00:46:57;;;;;;;4.23;3.83;;;;;;;1.60;100.00;96752.38;4940118;28;103200;-69
2021/01/23 00:49:25;;;;;;;4.53;4.13;;;;;;;1.53;100.00;96756.34;4923370;28;102703;-70
2021/01/23 00:51:52;;;;;;;3.80;3.50;;;;;;;1.57;100.00;96776.00;4940285;28;104637;-70
2021/01/23 00:54:19;;;;;;;5.53;5.03;;;;;;;1.52;100.00;96770.28;4935710;28;104828;-70
2021/01/23 00:56:46;;;;;;;5.00;4.50;;;;;;;1.44;100.00;96780.38;4928040;28;102666;-70
2021/01/23 00:59:13;;;;;;;5.60;5.07;;;;;;;1.50;100.00;96776.53;4923727;28;102991;-70
2021/01/23 01:01:42;;;;;;;6.80;6.10;;;;;;;1.28;100.00;96782.31;4940522;28;104354;-69
2021/01/23 01:04:22;;;;;;;5.80;5.20;;;;;;;1.37;100.00;96779.13;4944391;28;104330;-69
2021/01/23 01:06:49;;;;;;;4.97;4.43;;;;;;;1.38;100.00;96793.78;4939380;28;102932;-69
2021/01/23 01:09:16;;;;;;;5.07;4.27;;;;;;;1.37;100.00;96792.13;4936262;28;103060;-70
2021/01/23 01:11:43;;;;;;;4.27;3.80;;;;;;;1.46;100.00;96795.88;4920927;28;109329;-70
2021/01/23 01:14:10;;;;;;;5.00;4.40;;;;;;;1.48;100.00;96794.84;4922421;28;103296;-69
2021/01/23 01:16:37;;;;;;;6.20;5.47;;;;;;;1.59;100.00;96801.94;4933565;28;103681;-71
2021/01/23 01:19:05;;;;;;;6.07;5.43;;;;;;;1.59;100.00;96812.34;4939340;28;103230;-70
2021/01/23 01:21:32;;;;;;;6.53;5.87;;;;;;;1.56;100.00;96813.41;4939238;28;104266;-71
2021/01/23 01:23:59;;;;;;;6.70;5.87;;;;;;;1.44;100.00;96816.78;4932925;28;113966;-70
2021/01/23 01:26:26;;;;;;;6.33;5.73;;;;;;;1.65;100.00;96822.38;4938810;28;103121;-70
2021/01/23 01:28:53;;;;;;;7.87;7.07;;;;;;;1.58;100.00;96834.94;4933927;28;102898;-69
2021/01/23 01:31:21;;;;;;;7.70;6.90;;;;;;;1.59;100.00;96828.81;4936212;28;104283;-70
2021/01/23 01:33:48;;;;;;;7.60;6.83;;;;;;;1.70;100.00;96825.50;4928751;28;105167;-70
2021/01/23 01:36:17;;;;;;;7.43;6.50;;;;;;;1.80;100.00;96825.72;4931117;28;103242;-70
2021/01/23 01:38:44;;;;;;;8.80;7.90;;;;;;;1.75;100.00;96839.03;4936290;28;103053;-70
2021/01/23 01:41:11;;;;;;;7.63;6.93;;;;;;;1.71;100.00;96838.38;4939782;28;103795;-70
2021/01/23 01:43:38;;;;;;;7.93;7.13;;;;;;;1.77;100.00;96849.34;4940023;28;103766;-69
2021/01/23 01:46:09;;;;;;;7.57;6.87;;;;;;;1.60;100.00;96851.28;4936970;28;108031;-70
2021/01/23 01:48:37;;;;;;;8.93;8.07;;;;;;;1.61;100.00;96863.38;4939402;28;106561;-69
2021/01/23 01:51:04;;;;;;;8.83;7.93;;;;;;;1.62;100.00;96853.78;4934767;28;103963;-70
2021/01/23 01:53:37;;;;;;;9.47;8.57;;;;;;;1.71;100.00;96869.63;4937411;28;104284;-70
2021/01/23 01:56:07;;;;;;;9.07;8.17;;;;;;;1.68;100.00;96872.44;4924633;28;103014;-70
2021/01/23 01:58:34;;;;;;;8.30;7.50;;;;;;;1.71;100.00;96872.22;4918871;28;103276;-70
2021/01/23 02:01:01;;;;;;;7.07;6.47;;;;;;;1.64;100.00;96873.59;4923508;28;108634;-70
2021/01/23 02:04:02;;;;;;;6.80;6.00;;;;;;;1.65;100.00;96875.25;4931166;28;104461;-70
2021/01/23 02:06:53;;;;;;;6.23;5.63;;;;;;;1.69;100.00;96876.72;4930286;28;108004;-69
2021/01/23 02:09:35;;;;;;;4.50;4.10;;;;;;;1.74;100.00;96879.84;4928347;28;102945;-71
2021/01/23 02:12:14;;;;;;;4.37;3.97;;;;;;;1.72;100.00;96881.72;4918846;28;107032;-71
2021/01/23 02:14:48;;;;;;;3.93;3.63;;;;;;;1.71;100.00;96890.47;4920679;28;105644;-70
2021/01/23 02:17:17;;;;;;;3.47;3.17;;;;;;;1.82;100.00;96897.59;4918705;28;103174;-70
2021/01/23 02:20:04;;;;;;;4.20;3.80;;;;;;;1.75;100.00;96902.34;4934803;28;102934;-70
2021/01/23 02:22:56;;;;;;;3.60;3.30;;;;;;;1.84;100.00;96905.28;4925150;28;104305;-70
2021/01/23 02:25:25;;;;;;;3.63;3.33;;;;;;;1.91;100.00;96914.38;4924797;28;104699;-70
2021/01/23 02:28:00;;;;;;;3.50;3.20;;;;;;;1.96;100.00;96914.91;4938602;28;103947;-70
2021/01/23 02:30:31;;;;;;;3.70;3.40;;;;;;;1.93;100.00;96928.13;4939630;28;103164;-69
2021/01/23 02:33:01;;;;;;;3.73;3.43;;;;;;;1.87;100.00;96925.91;4923149;28;103882;-70
2021/01/23 02:35:30;;;;;;;3.60;3.30;;;;;;;1.82;100.00;96914.97;4919914;28;106893;-70
2021/01/23 02:37:57;;;;;;;3.47;3.17;;;;;;;1.80;100.00;96924.66;4924226;28;103231;-70
2021/01/23 02:40:26;;;;;;;4.87;3.97;;;;;;;1.67;100.00;96925.44;4918888;28;102982;-70
2021/01/23 02:42:54;;;;;;;3.20;3.00;;;;;;;1.74;100.00;96928.50;4931641;28;104720;-69
2021/01/23 02:45:21;;;;;;;3.10;2.90;;;;;;;1.88;100.00;96938.03;4937559;28;106382;-71
2021/01/23 02:47:48;;;;;;;2.50;2.30;;;;;;;1.89;100.00;96955.28;4936595;28;106809;-71
2021/01/23 02:50:16;;;;;;;2.23;2.03;;;;;;;1.95;100.00;96953.13;4938677;28;103283;-70
2021/01/23 02:52:53;;;;;;;2.30;2.10;;;;;;;1.99;100.00;96959.81;4939142;28;103478;-70
2021/01/23 02:55:21;;;;;;;2.60;2.40;;;;;;;1.88;100.00;96964.06;4936183;28;105490;-71
2021/01/23 02:57:49;;;;;;;2.50;2.30;;;;;;;1.97;100.00;96968.63;4932458;28;103287;-70
2021/01/23 03:00:18;;;;;;;2.43;2.23;;;;;;;1.93;100.00;96970.63;4940768;28;103571;-71
2021/01/23 03:02:51;;;;;;;2.23;2.03;;;;;;;1.90;100.00;96967.38;4936865;28;104059;-70
2021/01/23 03:05:22;;;;;;;2.20;2.00;;;;;;;1.81;100.00;96962.78;4924818;28;104293;-70
2021/01/23 03:07:52;;;;;;;2.10;2.00;;;;;;;1.86;100.00;96971.09;4923506;28;103159;-70
2021/01/23 03:10:33;;;;;;;2.33;2.13;;;;;;;1.87;100.00;96970.19;4941339;28;103009;-69
2021/01/23 03:13:00;;;;;;;2.20;2.00;;;;;;;1.90;100.00;96983.00;4942270;28;103898;-70
2021/01/23 03:15:27;;;;;;;2.37;2.17;;;;;;;1.83;100.00;96987.78;4924980;28;103292;-70
2021/01/23 03:17:54;;;;;;;2.57;2.37;;;;;;;1.85;100.00;96992.91;4935130;28;103069;-70
2021/01/23 03:20:23;;;;;;;2.60;2.40;;;;;;;1.86;100.00;96991.94;4939583;28;103154;-70
2021/01/23 03:22:49;;;;;;;2.70;2.30;;;;;;;1.90;100.00;96998.63;4942158;28;107228;-69
2021/01/23 03:25:17;;;;;;;2.10;1.90;;;;;;;1.90;100.00;96993.44;4936858;28;103795;-70
2021/01/23 03:27:44;;;;;;;2.47;2.10;;;;;;;1.92;100.00;97001.97;4928180;28;103028;-70
2021/01/23 03:30:11;;;;;;;2.50;2.30;;;;;;;1.97;100.00;96999.91;4936568;28;103042;-70
2021/01/23 03:32:40;;;;;;;2.17;1.97;;;;;;;2.04;100.00;96998.59;4928419;28;103264;-70
2021/01/23 03:35:08;;;;;;;2.40;2.20;;;;;;;2.01;100.00;96996.16;4923267;28;103718;-71
2021/01/23 03:37:36;;;;;;;2.87;2.53;;;;;;;2.06;100.00;97004.53;4938852;28;102824;-69
2021/01/23 03:40:04;;;;;;;2.43;2.23;;;;;;;1.93;100.00;97009.69;4925671;28;103178;-69
2021/01/23 03:42:32;;;;;;;2.53;2.27;;;;;;;1.91;100.00;97001.13;4921989;28;103671;-70
2021/01/23 03:44:59;;;;;;;2.63;2.43;;;;;;;1.87;100.00;97009.25;4936041;28;105930;-72
2021/01/23 03:47:26;;;;;;;2.40;2.23;;;;;;;1.92;100.00;97007.19;4941468;28;102914;-70
2021/01/23 03:49:53;;;;;;;2.37;2.13;;;;;;;1.93;100.00;97011.47;4941061;28;103173;-70
2021/01/23 03:52:20;;;;;;;2.87;2.60;;;;;;;1.98;100.00;97020.66;4941388;28;103386;-70
2021/01/23 03:54:48;;;;;;;2.33;2.13;;;;;;;2.04;100.00;97022.88;4939899;28;103868;-70
2021/01/23 03:57:15;;;;;;;2.50;2.30;;;;;;;2.03;100.00;97025.56;4929751;28;102948;-69
2021/01/23 03:59:42;;;;;;;2.37;2.17;;;;;;;2.03;100.00;97029.00;4941382;28;103007;-70
2021/01/23 04:02:09;;;;;;;2.37;2.00;;;;;;;2.11;100.00;97033.69;4940694;28;106250;-70
2021/01/23 04:04:36;;;;;;;2.77;2.43;;;;;;;2.12;100.00;97035.38;4939361;28;110579;-70
2021/01/23 04:07:03;;;;;;;2.70;2.50;;;;;;;2.12;100.00;97041.44;4940796;28;103085;-70
2021/01/23 04:09:30;;;;;;;3.20;2.90;;;;;;;2.13;100.00;97035.28;4938414;28;103317;-70
2021/01/23 04:11:59;;;;;;;3.23;2.93;;;;;;;2.17;100.00;97046.34;4920717;28;107471;-71
2021/01/23 04:14:25;;;;;;;3.30;3.00;;;;;;;2.19;100.00;97047.09;4923910;28;110447;-70
2021/01/23 04:16:52;;;;;;;4.87;3.50;;;;;;;2.08;100.00;97042.56;4942623;28;103550;-71
2021/01/23 04:19:20;;;;;;;3.67;2.97;;;;;;;2.18;100.00;97048.88;4956234;28;103005;-71
2021/01/23 04:21:47;;;;;;;3.93;2.83;;;;;;;2.21;100.00;97053.03;4940588;28;111162;-69
2021/01/23 04:24:14;;;;;;;3.10;2.90;;;;;;;2.18;100.00;97051.47;4939237;28;103343;-71
2021/01/23 04:26:41;;;;;;;3.20;2.90;;;;;;;2.26;100.00;97054.41;4931859;28;102916;-69
2021/01/23 04:29:09;;;;;;;3.17;2.87;;;;;;;2.23;100.00;97053.75;4921572;28;103335;-71
2021/01/23 04:31:36;;;;;;;3.90;3.20;;;;;;;2.17;100.00;97054.16;4929296;28;105011;-70
2021/01/23 04:34:03;;;;;;;3.73;2.87;;;;;;;2.18;100.00;97050.63;4934842;28;105241;-70
2021/01/23 04:36:31;;;;;;;2.60;2.37;;;;;;;2.29;100.00;97042.94;4931014;28;102937;-69
2021/01/23 04:38:58;;;;;;;3.07;2.73;;;;;;;2.32;100.00;97048.81;4939062;28;103384;-70
2021/01/23 04:41:29;;;;;;;2.97;2.57;;;;;;;2.29;100.00;97051.59;4938985;28;104216;-70
2021/01/23 04:43:56;;;;;;;6.73;3.20;;;;;;;2.30;100.00;97052.44;4929866;28;112058;-70
2021/01/23 04:46:24;;;;;;;3.90;3.00;;;;;;;2.36;100.00;97046.81;4921226;28;103015;-71
2021/01/23 04:48:51;;;;;;;2.50;2.30;;;;;;;2.36;100.00;97046.81;4933236;28;103069;-70
2021/01/23 04:51:18;;;;;;;3.13;2.87;;;;;;;2.31;100.00;97034.09;4934043;28;104433;-70
2021/01/23 04:53:47;;;;;;;3.23;2.40;;;;;;;2.36;100.00;97028.56;4932275;28;105313;-70
2021/01/23 04:56:14;;;;;;;4.20;3.20;;;;;;;2.36;100.00;97041.59;4938673;28;102872;-70
2021/01/23 04:58:41;;;;;;;2.60;2.40;;;;;;;2.30;100.00;97039.41;4935297;28;103355;-70
2021/01/23 05:01:13;;;;;;;2.80;2.50;;;;;;;2.33;100.00;97040.03;4938844;28;104085;-70
2021/01/23 05:03:57;;;;;;;3.27;2.97;;;;;;;2.35;100.00;97037.34;4940982;28;102914;-71
2021/01/23 05:06:25;;;;;;;4.63;3.50;;;;;;;2.26;100.00;97037.94;4939270;28;103154;-70
2021/01/23 05:08:52;;;;;;;4.20;2.80;;;;;;;2.14;100.00;97038.72;4939972;28;103171;-70
2021/01/23 05:11:20;;;;;;;3.77;3.10;;;;;;;2.23;100.00;97038.97;4925201;28;106450;-70
2021/01/23 05:14:09;;;;;;;3.30;2.97;;;;;;;2.23;100.00;97040.72;4940333;28;103319;-70
2021/01/23 05:16:36;;;;;;;3.77;2.20;;;;;;;2.21;100.00;97034.78;4936219;28;103736;-70
2021/01/23 05:19:06;;;;;;;3.50;3.10;;;;;;;2.13;100.00;97037.06;4921029;28;102935;-70
2021/01/23 05:21:34;;;;;;;3.90;3.37;;;;;;;2.09;100.00;97035.59;4920382;28;103802;-70
2021/01/23 05:24:09;;;;;;;2.37;2.10;;;;;;;2.12;100.00;97040.59;4920865;28;104091;-70
2021/01/23 05:26:37;;;;;;;3.47;2.57;;;;;;;2.08;100.00;97039.09;4931016;28;103237;-71
2021/01/23 05:29:14;;;;;;;2.93;2.63;;;;;;;2.03;100.00;97041.19;4921245;28;103021;-70
2021/01/23 05:31:43;;;;;;;2.53;2.10;;;;;;;2.04;100.00;97050.69;4926700;28;103978;-70
2021/01/23 05:34:27;;;;;;;2.90;2.70;;;;;;;2.04;100.00;97053.28;4939836;28;103136;-70
2021/01/23 05:36:55;;;;;;;3.20;2.30;;;;;;;1.97;100.00;97059.81;4937511;28;103396;-70
2021/01/23 05:39:22;;;;;;;3.50;2.80;;;;;;;1.97;100.00;97063.25;4940181;28;103170;-73
2021/01/23 05:42:03;;;;;;;3.10;2.90;;;;;;;1.90;100.00;97066.34;4935745;28;104000;-74
2021/01/23 05:44:30;;;;;;;3.50;2.80;;;;;;;1.73;100.00;97076.06;4927550;28;104457;-74
2021/01/23 05:46:57;;;;;;;3.67;3.37;;;;;;;1.73;100.00;97083.88;4938992;28;103076;-74
2021/01/23 05:49:26;;;;;;;2.93;2.70;;;;;;;1.84;100.00;97082.34;4940576;28;103127;-74
2021/01/23 05:51:53;;;;;;;3.53;3.03;;;;;;;2.00;100.00;97080.44;4927972;28;104410;-74
2021/01/23 05:54:20;;;;;;;4.13;3.33;;;;;;;2.00;100.00;97083.06;4926559;28;105771;-74
2021/01/23 05:56:47;;;;;;;3.10;2.60;;;;;;;2.10;100.00;97081.56;4931963;28;103235;-73
2021/01/23 05:59:14;;;;;;;4.97;3.50;;;;;;;1.85;100.00;97074.47;4939049;28;103868;-73
2021/01/23 06:01:42;;;;;;;4.43;3.60;;;;;;;1.97;100.00;97073.66;4931323;28;104440;-73
2021/01/23 06:04:14;;;;;;;5.27;3.40;;;;;;;1.96;100.00;97071.16;4921587;28;104041;-74
2021/01/23 06:06:46;;;;;;;3.43;3.07;;;;;;;2.03;100.00;97068.06;4928392;28;102864;-74
2021/01/23 06:09:34;;;;;;;2.57;2.37;;;;;;;2.12;100.00;97066.66;4932867;28;102743;-74
2021/01/23 06:12:01;;;;;;;2.53;2.33;;;;;;;2.12;100.00;97059.69;4930465;28;104033;-74
2021/01/23 06:14:39;;;;;;;2.60;2.40;;;;;;;1.93;100.00;97060.94;4938413;28;104840;-73
2021/01/23 06:17:06;;;;;;;2.83;2.40;;;;;;;2.05;100.00;97060.97;4939445;28;105968;-72
2021/01/23 06:19:42;;;;;;;3.10;2.30;;;;;;;2.05;100.00;97060.19;4938543;28;103208;-73
2021/01/23 06:22:13;;;;;;;2.10;1.90;;;;;;;2.12;100.00;97058.84;4937817;28;106724;-75
2021/01/23 06:24:56;;;;;;;2.23;2.00;;;;;;;2.15;100.00;97062.09;4934665;28;104846;-74
2021/01/23 06:27:47;;;;;;;2.23;1.63;;;;;;;2.17;100.00;97054.16;4925169;28;103016;-74
2021/01/23 06:30:28;;;;;;;2.63;2.07;;;;;;;2.16;100.00;97047.28;4919822;28;102851;-74
2021/01/23 06:32:55;;;;;;;1.87;1.67;;;;;;;2.22;100.00;97054.69;4935525;28;104391;-74
2021/01/23 06:35:23;;;;;;;3.53;1.70;;;;;;;2.13;100.00;97050.91;4927819;28;104569;-77
2021/01/23 06:38:11;;;;;;;1.80;1.70;;;;;;;2.26;100.00;97053.56;4932021;28;103238;-76
2021/01/23 06:40:38;;;;;;;1.73;1.60;;;;;;;2.29;100.00;97048.16;4928308;28;102951;-75
2021/01/23 06:43:07;;;;;;;2.00;1.47;;;;;;;2.28;100.00;97051.69;4928164;28;104465;-76
2021/01/23 06:45:35;;;;;;;2.20;2.00;;;;;;;2.30;100.00;97053.25;4929313;28;103840;-73
2021/01/23 06:48:03;;;;;;;2.00;1.90;;;;;;;2.29;100.00;97048.16;4928940;28;103191;-73
2021/01/23 06:50:33;;;;;;;2.57;2.00;;;;;;;2.29;100.00;97043.78;4935580;28;108493;-75
2021/01/23 06:53:02;;;;;;;1.97;1.77;;;;;;;2.30;100.00;97052.44;4929235;28;105636;-74
2021/01/23 06:55:49;;;;;;;1.90;1.60;;;;;;;2.34;100.00;97057.34;4925989;28;107220;-75
2021/01/23 06:58:22;;;;;;;2.90;1.87;;;;;;;2.34;99.81;97051.28;4931784;28;103712;-74
2021/01/23 07:00:51;;;;;;;2.17;1.97;;;;;;;2.39;100.00;97048.41;4923377;28;103158;-75
2021/01/23 07:03:18;;;;;;;2.03;1.60;;;;;;;2.26;100.00;97054.41;4926833;28;104573;-75
2021/01/23 07:05:47;;;;;;;1.90;1.53;;;;;;;2.29;100.00;97053.38;4930554;28;103852;-74
2021/01/23 07:08:29;;;;;;;4.40;1.77;;;;;;;2.24;100.00;97061.50;4926265;28;102861;-76
2021/01/23 07:11:18;;;;;;;2.30;2.00;;;;;;;2.28;100.00;97065.56;4927116;28;103304;-74
2021/01/23 07:14:02;;;;;;;3.10;2.30;;;;;;;2.25;99.95;97075.34;4925804;28;103973;-74
2021/01/23 07:16:31;;;;;;;1.50;1.40;;;;;;;2.26;100.00;97066.59;4920492;28;105699;-75
2021/01/23 07:18:59;;;;;;;2.53;2.33;;;;;;;2.10;100.00;97071.97;4932284;28;103429;-76
2021/01/23 07:21:29;;;;;;;2.80;2.33;;;;;;;2.02;100.00;97076.00;4930685;28;104849;-76
2021/01/23 07:23:57;;;;;;;3.17;2.80;;;;;;;1.87;100.00;97082.16;4933737;28;104570;-76
2021/01/23 07:26:25;;;;;;;2.80;2.60;;;;;;;1.88;100.00;97083.84;4935535;28;103939;-77
2021/01/23 07:28:55;;;;;;;3.40;2.97;;;;;;;1.92;100.00;97077.50;4929074;28;103212;-76
2021/01/23 07:31:24;;;;;;;4.73;2.70;;;;;;;1.86;100.00;97080.47;4936039;28;103089;-76
2021/01/23 07:33:53;;;;;;;3.57;2.77;;;;;;;1.58;100.00;97071.78;4924127;28;103841;-76
2021/01/23 07:36:30;;;;;;;3.37;2.90;;;;;;;1.68;100.00;97078.09;4925379;28;106632;-75
2021/01/23 07:38:59;;;;;;;5.23;2.90;;;;;;;1.75;100.00;97078.56;4932618;28;104421;-77
2021/01/23 07:41:29;;;;;;;3.30;2.80;;;;;;;1.66;100.00;97073.91;4939257;28;102969;-76
2021/01/23 07:43:58;;;;;;;2.93;2.63;;;;;;;1.63;100.00;97074.09;4939376;28;104336;-77
2021/01/23 07:46:25;;;;;;;2.50;2.13;;;;;;;1.82;100.00;97066.84;4938711;28;103198;-76
2021/01/23 07:48:52;;;;;;;2.87;2.63;;;;;;;1.84;100.00;97070.16;4937455;28;103125;-76
2021/01/23 07:51:23;;;;;;;3.43;3.13;;;;;;;1.82;100.00;97073.81;4927749;28;102885;-76
2021/01/23 07:54:08;;;;;;;2.97;2.73;;;;;;;2.01;100.00;97069.09;4931604;28;103807;-77
2021/01/23 07:56:35;;;;;;;3.17;2.77;;;;;;;2.20;100.00;97060.00;4938883;28;103109;-77
2021/01/23 07:59:04;;;;;;;2.43;2.23;;;;;;;2.26;100.00;97061.38;4929328;28;102869;-75
2021/01/23 08:01:31;;;;;;;3.70;3.23;;;;;;;2.36;100.00;97059.84;4937685;28;103276;-77
2021/01/23 08:03:58;;;;;;;4.43;3.83;;;;;;;2.40;100.00;97058.72;4924569;28;104356;-79
2021/01/23 08:06:26;;;;;;;4.33;3.07;;;;;;;2.52;100.00;97060.53;4921323;28;106794;-76
2021/01/23 08:08:54;;;;;;;3.03;2.73;;;;;;;2.55;100.00;97060.31;4921678;28;102933;-72
2021/01/23 08:11:38;;;;;;;3.20;2.90;;;;;;;2.64;99.53;97057.09;4924016;28;103015;-75
2021/01/23 08:14:10;;;;;;;3.07;2.77;;;;;;;2.76;98.61;97045.00;4925538;28;103772;-75
2021/01/23 08:16:50;;;;;;;3.77;3.20;;;;;;;2.82;98.03;97048.06;4941168;28;103288;-75
2021/01/23 08:19:18;;;;;;;3.27;2.97;;;;;;;2.84;96.87;97048.78;4927874;28;102979;-75
2021/01/23 08:22:06;;;;;;;4.03;3.20;;;;;;;2.95;97.87;97048.03;4919853;28;103173;-75
2021/01/23 08:24:33;;;;;;;3.13;2.70;;;;;;;3.05;97.34;97051.72;4920328;28;104032;-74
2021/01/23 08:27:15;;;;;;;3.53;3.17;;;;;;;3.06;96.27;97049.94;4934922;28;103980;-74
2021/01/23 08:29:44;;;;;;;3.67;2.63;;;;;;;3.14;97.24;97058.94;4922901;28;103010;-74
2021/01/23 08:32:11;;;;;;;4.23;3.83;;;;;;;3.14;96.97;97050.25;4930974;28;103199;-76
2021/01/23 08:34:38;;;;;;;3.93;3.10;;;;;;;3.26;97.80;97046.78;4922830;28;107158;-76
2021/01/23 08:37:05;;;;;;;3.87;3.20;;;;;;;3.27;97.08;97048.47;4938747;28;103765;-76
2021/01/23 08:39:44;;;;;;;3.37;3.00;;;;;;;3.29;97.73;97042.19;4939012;28;103003;-76
2021/01/23 08:42:12;;;;;;;3.03;2.83;;;;;;;3.26;96.94;97041.56;4939913;28;103190;-71
2021/01/23 08:44:40;;;;;;;3.23;2.93;;;;;;;3.18;95.66;97043.88;4931923;28;104041;-73
2021/01/23 08:47:07;;;;;;;2.63;2.30;;;;;;;3.26;95.39;97045.00;4922152;28;103242;-73
2021/01/23 08:49:35;;;;;;;2.90;2.47;;;;;;;3.49;95.56;97039.03;4920087;28;103569;-76
2021/01/23 08:52:03;;;;;;;4.07;3.20;;;;;;;3.60;94.32;97035.66;4919585;28;103044;-77
2021/01/23 08:54:41;;;;;;;4.57;2.60;;;;;;;3.72;94.28;97026.97;4933444;28;104338;-74
2021/01/23 08:57:12;;;;;;;2.70;2.50;;;;;;;3.72;93.48;97026.97;4905230;28;105526;-75
2021/01/23 08:59:41;;;;;;;3.33;2.57;;;;;;;3.62;94.26;97027.75;4920654;28;103442;-75
2021/01/23 09:02:10;;;;;;;3.50;2.73;;;;;;;3.67;93.95;97018.63;4930643;28;103344;-77
2021/01/23 09:04:38;;;;;;;2.73;2.47;;;;;;;3.70;93.73;97025.41;4916438;28;105222;-75
2021/01/23 09:07:05;;;;;;;4.90;3.00;;;;;;;3.78;93.16;97015.25;4924116;28;104382;-74
2021/01/23 09:09:32;;;;;;;4.50;2.87;;;;;;;3.70;93.44;97015.81;4928541;28;103067;-74
2021/01/23 09:12:02;;;;;;;4.63;3.27;;;;;;;3.61;94.24;97010.41;4906347;28;102938;-74
2021/01/23 09:14:29;;;;;;;4.70;2.80;;;;;;;3.72;93.93;97013.91;4916551;28;104320;-77
2021/01/23 09:16:57;;;;;;;2.67;2.13;;;;;;;3.71;93.18;97012.22;4927336;28;105093;-75
2021/01/23 09:19:24;;;;;;;2.67;2.43;;;;;;;3.66;92.90;97010.91;4922302;28;103249;-74
2021/01/23 09:21:52;;;;;;;3.50;3.20;;;;;;;3.71;92.64;97004.41;4924881;28;102957;-76
2021/01/23 09:24:19;;;;;;;3.43;3.13;;;;;;;3.86;93.24;97010.31;4922108;28;103304;-77
2021/01/23 09:26:46;;;;;;;3.27;2.47;;;;;;;3.92;93.29;97015.94;4926494;28;104416;-74
2021/01/23 09:29:14;;;;;;;2.77;2.20;;;;;;;4.13;92.05;97002.28;4935108;28;103294;-72
2021/01/23 09:31:41;;;;;;;3.20;2.83;;;;;;;4.18;91.53;97006.22;4939686;28;103032;-72
2021/01/23 09:34:11;;;;;;;3.73;3.30;;;;;;;3.97;91.98;97008.59;4938477;28;104996;-73
2021/01/23 09:36:38;;;;;;;4.57;3.00;;;;;;;4.22;91.63;97004.19;4939123;28;103251;-76
2021/01/23 09:39:05;;;;;;;3.53;2.77;;;;;;;4.25;91.10;96996.13;4926797;28;103227;-74
2021/01/23 09:41:33;;;;;;;2.40;2.20;;;;;;;4.47;91.35;96997.03;4936979;28;103356;-75
2021/01/23 09:44:00;;;;;;;2.73;2.53;;;;;;;4.43;89.92;96989.53;4919729;28;103315;-73
2021/01/23 09:46:27;;;;;;;4.93;3.40;;;;;;;4.29;90.75;96997.56;4932800;28;103908;-73
2021/01/23 09:48:54;;;;;;;4.67;3.10;;;;;;;4.39;89.72;96990.72;4937307;28;103340;-75
2021/01/23 09:51:22;;;;;;;4.83;2.80;;;;;;;4.37;90.27;96997.84;4937986;28;104015;-73
2021/01/23 09:53:49;;;;;;;3.63;2.70;;;;;;;4.40;89.04;96992.38;4922932;28;103926;-72
2021/01/23 09:56:17;;;;;;;4.47;2.83;;;;;;;4.51;90.52;96987.19;4927311;28;103951;-75
2021/01/23 09:58:44;;;;;;;3.87;2.30;;;;;;;4.47;90.54;96983.97;4909363;28;104177;-71
2021/01/23 10:01:11;;;;;;;3.30;3.00;;;;;;;4.52;90.58;96978.41;4928469;28;103159;-72
2021/01/23 10:03:38;;;;;;;4.17;1.80;;;;;;;4.39;89.87;96975.84;4932162;28;104154;-75
2021/01/23 10:06:05;;;;;;;2.60;2.37;;;;;;;4.58;89.99;96967.47;4925753;28;103384;-73
2021/01/23 10:08:33;;;;;;;3.40;3.10;;;;;;;4.61;89.36;96973.28;4924160;28;103446;-71
2021/01/23 10:11:00;;;;;;;3.97;3.57;;;;;;;4.83;91.17;96971.69;4927706;28;104309;-71
2021/01/23 10:13:28;;;;;;;3.80;3.30;;;;;;;5.03;90.04;96963.94;4926831;28;104939;-70
2021/01/23 10:15:55;;;;;;;5.50;3.90;;;;;;;4.60;90.86;96955.13;4933836;28;103743;-72
2021/01/23 10:18:22;;;;;;;3.87;3.53;;;;;;;4.63;92.68;96955.69;4935624;28;103370;-73
2021/01/23 10:20:49;;;;;;;3.30;3.00;;;;;;;5.15;91.02;96947.31;4936035;28;103298;-72
2021/01/23 10:23:16;;;;;;;5.13;3.37;;;;;;;5.30;89.28;96934.81;4935955;28;103807;-73
2021/01/23 10:25:44;;;;;;;5.23;2.93;;;;;;;5.73;89.87;96942.69;4932278;28;104690;-70
2021/01/23 10:28:11;;;;;;;3.00;2.43;;;;;;;5.93;87.58;96939.31;4923694;28;103424;-74
2021/01/23 10:30:39;;;;;;;2.80;2.60;;;;;;;5.79;87.33;96934.31;4917304;28;103279;-72
2021/01/23 10:33:06;;;;;;;4.53;3.70;;;;;;;5.75;86.88;96936.34;4932722;28;105592;-72
2021/01/23 10:35:33;;;;;;;4.17;3.37;;;;;;;5.64;87.52;96928.53;4933119;28;103771;-74
2021/01/23 10:38:00;;;;;;;4.00;3.53;;;;;;;5.41;87.41;96918.25;4933340;28;103845;-72
2021/01/23 10:40:27;;;;;;;3.80;3.40;;;;;;;5.64;87.41;96917.25;4936304;28;103193;-71
2021/01/23 10:42:55;;;;;;;4.27;2.70;;;;;;;5.66;85.96;96912.69;4936042;28;103248;-76
2021/01/23 10:45:23;;;;;;;2.63;2.43;;;;;;;5.21;86.96;96915.41;4932503;28;103101;-71
2021/01/23 10:47:50;;;;;;;3.27;2.20;;;;;;;5.37;86.58;96919.44;4936063;28;103093;-73
2021/01/23 10:50:17;;;;;;;4.60;2.13;;;;;;;5.34;86.33;96903.94;4925415;28;103247;-74
2021/01/23 10:52:44;;;;;;;2.53;1.97;;;;;;;5.17;85.45;96898.28;4915677;28;103843;-73
2021/01/23 10:55:12;;;;;;;1.93;1.80;;;;;;;5.40;86.86;96901.69;4933230;28;104302;-77
2021/01/23 10:57:39;;;;;;;3.40;1.90;;;;;;;5.40;85.96;96890.38;4921170;28;103144;-75
2021/01/23 11:00:09;;;;;;;2.23;1.83;;;;;;;5.50;83.75;96886.09;4919381;28;103234;-76
2021/01/23 11:02:38;;;;;;;2.50;1.50;;;;;;;5.73;85.75;96890.28;4917469;28;103576;-73
2021/01/23 11:05:07;;;;;;;2.83;1.87;;;;;;;5.71;86.34;96881.72;4919990;28;105156;-71
2021/01/23 11:07:53;;;;;;;2.47;1.77;;;;;;;5.72;85.52;96878.16;4925349;28;103346;-73
2021/01/23 11:10:20;;;;;;;2.23;1.77;;;;;;;5.89;86.09;96875.03;4920694;28;103197;-70
2021/01/23 11:12:48;;;;;;;3.27;2.10;;;;;;;5.99;85.70;96872.47;4911799;28;109350;-72
2021/01/23 11:15:17;;;;;;;1.67;1.57;;;;;;;5.97;83.86;96867.34;4930135;28;104412;-70
2021/01/23 11:17:45;;;;;;;2.23;1.60;;;;;;;6.09;83.93;96860.28;4922807;28;103153;-71
2021/01/23 11:20:13;;;;;;;2.30;2.00;;;;;;;5.94;82.94;96856.28;4932672;28;103361;-73
2021/01/23 11:22:43;;;;;;;2.00;1.80;;;;;;;6.21;84.33;96857.44;4931794;28;104363;-70
2021/01/23 11:25:12;;;;;;;1.87;1.70;;;;;;;6.22;83.96;96847.78;4939356;28;103649;-70
2021/01/23 11:27:39;;;;;;;2.70;1.70;;;;;;;6.32;82.74;96846.88;4927203;28;103212;-70
2021/01/23 11:30:09;;;;;;;2.47;1.37;;;;;;;6.53;82.04;96844.25;4938872;28;103695;-70
2021/01/23 11:32:37;;;;;;;1.60;1.50;;;;;;;6.58;80.54;96838.59;4936652;28;105088;-71
2021/01/23 11:35:06;;;;;;;3.07;1.80;;;;;;;6.37;81.86;96836.03;4933432;28;103254;-71
2021/01/23 11:37:34;;;;;;;3.67;2.00;;;;;;;6.51;80.74;96842.72;4918424;28;104306;-70